Terminal Aerodrome Forecast
Issued by NWS Bismarck, ND

Home | Current Version | Previous Version | Graphics & Text | Print | Product List | Glossary Off
Versions: 1 2 3 4 5 6 7 8 9 10 11 12 13 14 15 16 17 18 19 20 21 22 23 24 25

000
FTUS43 KBIS 281300 AAA
TAFBIS
TAF AMD
KBIS 281330Z 2814/2912 06008KT 4SM -SN BR BKN035 OVC060
     FM281500 08008KT 6SM -SN BR SCT015 OVC025
     FM281900 07007KT P6SM VCSH BKN025 OVC050
     FM290100 04007KT P6SM FEW020 SCT070=

USA.gov is the U.S. government's official web portal to all federal, state and local government web resources and services.